Time;durP1;ratioP1;P1;durP2;ratioP2;P2;SDS_P1;SDS_P2;PMS_P1;PMS_P2;Temp;Humidity;BMP_temperature;BMP_pressure;BME280_temperature;BME280_humidity;BME280_pressure;Samples;Min_cycle;Max_cycle;Signal;HPM_P1;HPM_P2
2021/12/29 00:00:53;;;;;;;60.20;28.70;;;;;;;-4.69;87.63;97236.94;102646;1324;137926;-82
2021/12/29 00:03:20;;;;;;;63.60;31.30;;;;;;;-4.72;87.63;97232.98;102726;1324;25281;-82
2021/12/29 00:05:46;;;;;;;65.20;29.90;;;;;;;-4.70;87.93;97234.86;102346;1332;138742;-83
2021/12/29 00:08:12;;;;;;;54.70;24.30;;;;;;;-4.68;87.66;97232.96;102478;1324;25397;-83
2021/12/29 00:10:38;;;;;;;58.90;27.90;;;;;;;-4.71;87.35;97231.69;102632;1331;22640;-83
2021/12/29 00:13:06;;;;;;;63.20;26.80;;;;;;;-4.72;87.71;97227.05;102531;1332;138051;-83
2021/12/29 00:15:36;;;;;;;60.30;25.90;;;;;;;-4.69;88.41;97217.95;102458;1332;145514;-82
2021/12/29 00:18:03;;;;;;;58.30;26.60;;;;;;;-4.65;88.28;97216.06;102661;1331;138381;-83
2021/12/29 00:20:31;;;;;;;53.40;25.30;;;;;;;-4.61;88.30;97214.17;102694;1324;22610;-83
2021/12/29 00:22:59;;;;;;;48.10;23.40;;;;;;;-4.54;87.99;97217.87;102772;1324;22812;-83
2021/12/29 00:25:26;;;;;;;55.40;23.30;;;;;;;-4.49;88.31;97212.92;102637;1328;138249;-83
2021/12/29 00:27:58;;;;;;;51.10;22.70;;;;;;;-4.44;88.16;97213.80;102700;1324;23230;-83
2021/12/29 00:30:26;;;;;;;48.70;23.10;;;;;;;-4.42;87.76;97221.61;102479;1332;137935;-82
2021/12/29 00:32:57;;;;;;;52.60;22.00;;;;;;;-4.45;87.83;97227.74;102610;1330;22832;-83
2021/12/29 00:35:46;;;;;;;58.00;26.90;;;;;;;-4.46;87.82;97240.40;102537;1333;137883;-82
2021/12/29 00:38:34;;;;;;;54.20;26.60;;;;;;;-4.44;88.27;97242.17;102630;1327;25510;-82
2021/12/29 00:41:19;;;;;;;49.30;23.60;;;;;;;-4.39;87.93;97240.02;102480;1333;138679;-82
2021/12/29 00:44:06;;;;;;;52.10;23.90;;;;;;;-4.33;88.38;97235.70;102557;1324;24264;-82
2021/12/29 00:46:54;;;;;;;48.50;21.50;;;;;;;-4.28;88.25;97233.89;102801;1324;22613;-82
2021/12/29 00:49:21;;;;;;;50.40;22.00;;;;;;;-4.24;87.99;97237.01;102600;1324;137845;-82
2021/12/29 00:51:48;;;;;;;47.00;21.80;;;;;;;-4.22;87.96;97236.35;102665;1330;25391;-82
2021/12/29 00:54:15;;;;;;;45.20;22.10;;;;;;;-4.22;87.50;97235.25;102684;1327;138411;-82
2021/12/29 00:56:44;;;;;;;49.40;24.50;;;;;;;-4.19;88.18;97232.27;102749;1332;22594;-83
2021/12/29 00:59:11;;;;;;;48.40;23.30;;;;;;;-4.14;87.90;97226.65;102691;1327;22832;-82
2021/12/29 01:01:37;;;;;;;48.70;21.70;;;;;;;-4.07;88.18;97223.56;102492;1324;137691;-82
2021/12/29 01:04:04;;;;;;;50.30;22.90;;;;;;;-4.01;88.44;97225.04;102603;1324;24364;-82
2021/12/29 01:06:31;;;;;;;48.80;21.90;;;;;;;-3.98;87.71;97225.56;102678;1328;137708;-82
2021/12/29 01:08:57;;;;;;;47.20;22.80;;;;;;;-3.95;87.74;97236.54;102800;1332;24404;-83
2021/12/29 01:11:23;;;;;;;54.40;25.90;;;;;;;-3.92;87.92;97232.64;102484;1332;138487;-82
2021/12/29 01:13:50;;;;;;;49.60;25.40;;;;;;;-3.89;87.50;97225.17;102426;1327;22596;-82
2021/12/29 01:16:40;;;;;;;50.10;23.50;;;;;;;-3.88;87.37;97226.65;102402;1333;22618;-83
2021/12/29 01:19:13;;;;;;;50.50;23.90;;;;;;;-3.85;87.23;97221.23;102538;1328;137760;-83
2021/12/29 01:21:43;;;;;;;52.80;24.10;;;;;;;-3.83;86.98;97220.42;102579;1327;22715;-85
2021/12/29 01:24:10;;;;;;;53.60;23.40;;;;;;;-3.82;87.56;97220.27;101856;1332;138078;-84
2021/12/29 01:26:38;;;;;;;51.30;23.40;;;;;;;-3.84;86.71;97213.12;102459;1331;22635;-84
2021/12/29 01:29:04;;;;;;;53.40;24.80;;;;;;;-3.91;86.44;97211.63;102698;1329;22607;-84
2021/12/29 01:31:31;;;;;;;50.00;23.80;;;;;;;-3.94;86.51;97213.07;102382;1331;138478;-84
2021/12/29 01:33:59;;;;;;;53.00;24.00;;;;;;;-3.94;86.95;97209.05;102535;1327;23055;-85
2021/12/29 01:36:27;;;;;;;52.00;24.60;;;;;;;-3.95;86.75;97213.14;102366;1327;138218;-85
2021/12/29 01:38:54;;;;;;;52.70;22.30;;;;;;;-4.03;86.02;97215.33;102278;1331;22787;-86
2021/12/29 01:41:20;;;;;;;50.60;23.50;;;;;;;-4.08;86.46;97213.84;101901;1327;138232;-84
2021/12/29 01:43:47;;;;;;;53.60;23.80;;;;;;;-4.15;86.43;97222.09;102383;1325;22676;-84
2021/12/29 01:46:13;;;;;;;46.70;21.60;;;;;;;-4.22;86.43;97225.19;102454;1333;22602;-84
2021/12/29 01:48:39;;;;;;;47.50;23.50;;;;;;;-4.29;86.18;97221.24;102438;1329;137983;-83
2021/12/29 01:51:06;;;;;;;48.60;23.30;;;;;;;-4.32;86.58;97228.02;102665;1328;22690;-84
2021/12/29 01:54:03;;;;;;;50.30;22.90;;;;;;;-4.36;86.28;97222.45;102175;1327;138593;-84
2021/12/29 01:56:33;;;;;;;51.70;22.50;;;;;;;-4.35;86.89;97217.60;102352;1326;25378;-84
2021/12/29 01:58:59;;;;;;;;;;;;;;;-4.35;86.79;97219.35;102009;1329;26518;-84
2021/12/29 02:01:25;;;;;;;52.70;21.20;;;;;;;-4.39;86.43;97218.68;102348;1327;124666;-84
2021/12/29 02:03:55;;;;;;;50.10;21.10;;;;;;;-4.43;86.29;97224.86;102573;1324;23512;-84
2021/12/29 02:06:22;;;;;;;48.00;21.90;;;;;;;-4.50;86.43;97220.55;102459;1332;137732;-83
2021/12/29 02:08:48;;;;;;;53.80;23.00;;;;;;;-4.58;86.59;97222.74;102549;1328;24081;-83
2021/12/29 02:11:15;;;;;;;47.90;23.40;;;;;;;-4.64;86.54;97225.48;102427;1327;22735;-84
2021/12/29 02:13:41;;;;;;;52.30;22.00;;;;;;;-4.65;87.01;97225.48;102557;1326;138254;-84
2021/12/29 02:16:07;;;;;;;51.30;22.40;;;;;;;-4.63;87.03;97225.94;102055;1327;23001;-85
2021/12/29 02:18:37;;;;;;;49.90;23.80;;;;;;;-4.61;87.05;97221.63;101785;1331;137901;-85
2021/12/29 02:21:06;;;;;;;47.90;21.80;;;;;;;-4.61;86.39;97219.80;101911;1331;25455;-84
2021/12/29 02:23:47;;;;;;;46.90;21.80;;;;;;;-4.65;86.13;97222.60;102424;1325;137952;-84
2021/12/29 02:26:14;;;;;;;47.50;21.50;;;;;;;-4.72;85.91;97235.48;102543;1324;22764;-84
2021/12/29 02:28:43;;;;;;;48.00;22.70;;;;;;;-4.79;85.97;97228.49;102609;1332;22625;-84
2021/12/29 02:31:10;;;;;;;;;;;;;;;-4.85;85.85;97223.73;102138;1331;138499;-83
2021/12/29 02:33:36;;;;;;;42.90;19.90;;;;;;;-4.90;85.61;97217.56;101958;1332;25395;-83
2021/12/29 02:36:04;;;;;;;47.40;22.00;;;;;;;-4.93;85.85;97222.59;101751;1332;138041;-83
2021/12/29 02:38:34;;;;;;;52.00;22.10;;;;;;;-4.97;85.90;97221.92;102294;1330;24440;-84
2021/12/29 02:41:04;;;;;;;;;;;;;;;-4.98;86.33;97214.23;102661;1330;25365;-84
2021/12/29 02:43:32;;;;;;;44.40;19.60;;;;;;;-4.97;86.07;97220.38;102423;1324;123872;-83
2021/12/29 02:45:59;;;;;;;44.60;21.90;;;;;;;-5.00;86.44;97220.52;102596;1329;22809;-83
2021/12/29 02:48:28;;;;;;;52.20;23.40;;;;;;;-5.02;86.90;97213.84;102467;1325;137930;-83
2021/12/29 02:50:56;;;;;;;55.20;26.20;;;;;;;-4.96;86.92;97224.24;102499;1327;25330;-83
2021/12/29 02:53:24;;;;;;;45.10;22.10;;;;;;;-4.93;87.23;97221.11;102556;1328;138968;-84
2021/12/29 02:55:53;;;;;;;48.30;22.00;;;;;;;-4.88;87.17;97217.23;102175;1332;26573;-84
2021/12/29 02:58:21;;;;;;;50.60;20.70;;;;;;;-4.83;87.38;97224.52;102421;1327;22613;-83
2021/12/29 03:00:52;;;;;;;43.20;20.80;;;;;;;-4.78;88.03;97224.63;102377;1327;138096;-84
2021/12/29 03:03:24;;;;;;;42.50;19.40;;;;;;;-4.72;87.97;97227.91;102481;1328;22742;-83
2021/12/29 03:05:52;;;;;;;53.10;24.20;;;;;;;-4.70;87.73;97230.69;102455;1331;138438;-84
2021/12/29 03:08:20;;;;;;;47.20;24.30;;;;;;;-4.69;87.90;97229.51;102595;1331;26648;-83
2021/12/29 03:10:52;;;;;;;45.10;22.50;;;;;;;-4.67;87.89;97224.23;102581;1324;22908;-83
2021/12/29 03:13:20;;;;;;;47.20;20.90;;;;;;;-4.61;88.20;97222.46;102409;1324;138239;-83
2021/12/29 03:15:46;;;;;;;46.90;20.60;;;;;;;-4.54;88.33;97222.27;102482;1332;22609;-83
2021/12/29 03:18:12;;;;;;;50.00;21.40;;;;;;;-4.47;88.18;97224.31;102200;1330;137939;-83
2021/12/29 03:20:39;;;;;;;52.20;23.60;;;;;;;-4.44;88.29;97223.83;102102;1327;22645;-83
2021/12/29 03:23:05;;;;;;;45.70;22.60;;;;;;;-4.38;88.20;97223.23;102075;1327;25281;-83
2021/12/29 03:25:32;;;;;;;48.10;24.20;;;;;;;-4.31;88.69;97220.64;102320;1326;138972;-83
2021/12/29 03:28:00;;;;;;;49.60;22.60;;;;;;;-4.25;88.25;97221.00;102601;1325;22657;-83
2021/12/29 03:30:29;;;;;;;45.70;22.10;;;;;;;-4.22;88.00;97214.63;102470;1331;138920;-83
2021/12/29 03:33:09;;;;;;;48.70;22.10;;;;;;;-4.18;88.22;97220.34;102711;1332;25356;-84
2021/12/29 03:36:01;;;;;;;49.50;21.30;;;;;;;-4.14;88.15;97225.95;102329;1328;138410;-83
2021/12/29 03:38:30;;;;;;;49.40;23.00;;;;;;;-4.09;88.29;97228.11;102011;1327;24248;-83
2021/12/29 03:40:58;;;;;;;50.40;24.80;;;;;;;-4.04;87.97;97225.04;102341;1327;22756;-83
2021/12/29 03:43:26;;;;;;;49.80;24.90;;;;;;;-4.02;88.25;97226.18;102363;1328;138959;-83
2021/12/29 03:45:55;;;;;;;45.90;24.90;;;;;;;-3.96;88.08;97228.41;102605;1324;25409;-83
2021/12/29 03:48:24;;;;;;;49.30;22.60;;;;;;;-3.93;88.18;97227.67;102490;1324;138009;-83
2021/12/29 03:50:51;;;;;;;51.10;22.60;;;;;;;-3.90;87.91;97233.29;102569;1331;24359;-84
2021/12/29 03:53:18;;;;;;;45.80;21.80;;;;;;;-3.88;88.00;97236.57;102478;1332;22641;-84
2021/12/29 03:55:48;;;;;;;52.00;22.00;;;;;;;-3.87;87.89;97241.77;102426;1330;137594;-83
2021/12/29 03:58:15;;;;;;;56.40;24.70;;;;;;;-3.86;88.07;97242.45;101977;1328;23432;-83
2021/12/29 04:00:42;;;;;;;43.60;22.40;;;;;;;-3.86;87.75;97243.45;101906;1327;138756;-82
2021/12/29 04:03:08;;;;;;;39.60;21.60;;;;;;;-3.82;87.74;97239.82;101988;1332;22628;-82
2021/12/29 04:05:37;;;;;;;44.60;22.10;;;;;;;-3.79;87.53;97241.91;102106;1329;138735;-83
2021/12/29 04:08:04;;;;;;;46.70;21.80;;;;;;;-3.74;87.57;97242.02;102459;1329;25437;-83
2021/12/29 04:10:30;;;;;;;47.60;22.40;;;;;;;-3.70;87.89;97243.84;102547;1324;22662;-83
2021/12/29 04:12:59;;;;;;;50.60;22.60;;;;;;;-3.66;87.89;97246.55;102354;1331;138212;-83
2021/12/29 04:15:27;;;;;;;45.30;21.40;;;;;;;-3.65;87.64;97249.27;102318;1327;22702;-84
2021/12/29 04:17:58;;;;;;;43.60;22.80;;;;;;;-3.64;87.55;97249.51;102088;1333;137924;-84
2021/12/29 04:23:14;;;;;;;47.10;23.20;;;;;;;-3.58;86.99;97255.80;102335;1330;22600;-84
2021/12/29 04:25:45;;;;;;;39.50;19.90;;;;;;;-3.57;87.13;97258.85;102314;1327;138237;-84
2021/12/29 04:28:15;;;;;;;44.10;20.90;;;;;;;-3.55;87.19;97258.96;102618;1324;22643;-84
2021/12/29 04:30:42;;;;;;;44.30;20.40;;;;;;;-3.54;87.30;97264.30;102445;1324;137690;-84
2021/12/29 04:33:10;;;;;;;53.10;22.60;;;;;;;-3.56;87.01;97268.05;102220;1324;22652;-84
2021/12/29 04:35:36;;;;;;;50.20;24.50;;;;;;;-3.57;87.39;97262.67;102329;1331;138599;-84
2021/12/29 04:38:03;;;;;;;45.80;24.80;;;;;;;-3.59;87.54;97268.45;102426;1330;24234;-84
2021/12/29 04:40:30;;;;;;;49.90;23.60;;;;;;;-3.60;87.08;97269.83;102462;1326;24444;-84
2021/12/29 04:42:56;;;;;;;45.60;22.60;;;;;;;-3.58;87.27;97274.85;102376;1327;138124;-84
2021/12/29 04:45:23;;;;;;;46.60;20.10;;;;;;;-3.56;87.20;97276.06;102512;1325;22660;-84
2021/12/29 04:47:51;;;;;;;47.20;22.10;;;;;;;-3.55;87.35;97277.75;102471;1329;138161;-84
2021/12/29 04:50:37;;;;;;;47.00;23.10;;;;;;;-3.56;87.03;97282.13;102349;1327;25371;-84
2021/12/29 04:53:06;;;;;;;51.70;23.10;;;;;;;-3.59;87.15;97282.61;102333;1324;25540;-84
2021/12/29 04:55:33;;;;;;;;;;;;;;;-3.58;87.28;97276.89;102420;1330;138017;-84
2021/12/29 04:58:00;;;;;;;52.30;27.70;;;;;;;-3.56;87.22;97279.79;102451;1330;22625;-84
2021/12/29 05:00:30;;;;;;;45.60;24.00;;;;;;;-3.55;87.00;97281.11;102401;1327;138537;-84
2021/12/29 05:02:58;;;;;;;55.90;25.40;;;;;;;-3.51;87.47;97278.70;102408;1327;22658;-84
2021/12/29 05:11:01;;;;;;;54.50;26.20;;;;;;;-3.41;86.97;97278.91;102583;1330;22607;-83
2021/12/29 05:13:31;;;;;;;53.10;26.20;;;;;;;-3.40;86.92;97279.09;102567;1327;137789;-83
2021/12/29 05:15:58;;;;;;;57.70;26.10;;;;;;;-3.41;87.15;97275.30;102544;1327;22719;-84
2021/12/29 05:18:27;;;;;;;51.60;24.20;;;;;;;-3.36;87.30;97278.32;102451;1327;138567;-85
2021/12/29 05:20:54;;;;;;;49.20;22.60;;;;;;;-3.31;87.21;97280.27;102549;1325;24402;-85
2021/12/29 05:23:21;;;;;;;50.80;23.80;;;;;;;-3.28;87.06;97273.21;102458;1327;137974;-86
2021/12/29 05:25:49;;;;;;;46.50;23.70;;;;;;;-3.26;86.96;97274.52;102466;1331;22635;-86
2021/12/29 05:28:20;;;;;;;48.70;23.90;;;;;;;-3.26;86.97;97275.38;102564;1331;24370;-85
2021/12/29 05:30:47;;;;;;;53.50;25.70;;;;;;;-3.26;86.73;97288.54;102530;1324;137939;-87
2021/12/29 05:33:14;;;;;;;52.40;23.90;;;;;;;-3.24;86.92;97294.07;102154;1327;22697;-84
2021/12/29 05:35:41;;;;;;;50.60;24.40;;;;;;;-3.21;86.91;97304.41;102210;1332;138282;-84
2021/12/29 05:38:07;;;;;;;46.00;21.50;;;;;;;-3.19;86.74;97303.19;102146;1327;22603;-85
2021/12/29 05:40:34;;;;;;;45.00;22.20;;;;;;;-3.16;86.96;97307.57;102146;1328;26649;-84
2021/12/29 05:43:00;;;;;;;52.30;22.70;;;;;;;-3.14;86.81;97310.90;102186;1327;137875;-85
2021/12/29 05:45:28;;;;;;;49.40;23.60;;;;;;;-3.15;86.63;97310.16;102299;1330;24289;-84
2021/12/29 05:47:55;;;;;;;53.60;25.70;;;;;;;-3.17;86.24;97310.83;102390;1331;138374;-85
2021/12/29 05:50:26;;;;;;;48.20;24.50;;;;;;;-3.18;86.32;97309.80;102475;1328;22689;-84
2021/12/29 05:52:55;;;;;;;48.10;23.50;;;;;;;-3.17;86.62;97308.70;102511;1328;22687;-84
2021/12/29 05:55:21;;;;;;;42.80;22.30;;;;;;;-3.16;86.53;97306.78;102360;1331;138464;-84
2021/12/29 05:57:48;;;;;;;51.50;22.30;;;;;;;-3.15;86.84;97311.55;102380;1330;23370;-84
2021/12/29 06:00:20;;;;;;;44.70;21.90;;;;;;;-3.16;86.81;97316.33;101925;1325;138395;-84
2021/12/29 06:02:47;;;;;;;45.70;22.60;;;;;;;-3.15;86.85;97320.06;102365;1327;22606;-84
2021/12/29 06:05:15;;;;;;;45.20;23.10;;;;;;;-3.16;86.42;97320.75;102126;1333;26536;-84
2021/12/29 06:07:41;;;;;;;53.60;24.80;;;;;;;-3.17;85.96;97321.52;102134;1328;137853;-84
2021/12/29 06:10:09;;;;;;;53.20;25.70;;;;;;;-3.21;86.60;97321.68;102466;1332;22593;-84
2021/12/29 06:12:37;;;;;;;48.50;24.40;;;;;;;-3.19;86.41;97324.73;102318;1330;138714;-84
2021/12/29 06:15:05;;;;;;;45.80;22.00;;;;;;;-3.16;86.88;97323.95;102623;1330;22786;-84
2021/12/29 06:17:31;;;;;;;44.70;21.80;;;;;;;-3.13;86.68;97327.67;102605;1330;138329;-84
2021/12/29 06:19:58;;;;;;;44.30;22.80;;;;;;;-3.10;86.65;97334.42;102618;1333;22663;-83
2021/12/29 06:22:24;;;;;;;42.60;21.60;;;;;;;-3.11;86.59;97332.05;102109;1327;22611;-84
2021/12/29 06:24:52;;;;;;;47.10;23.70;;;;;;;-3.12;86.31;97334.70;101784;1324;137973;-84
2021/12/29 06:27:22;;;;;;;49.20;24.40;;;;;;;-3.13;86.42;97335.87;101798;1333;24491;-84
2021/12/29 06:29:49;;;;;;;45.60;21.70;;;;;;;-3.12;86.49;97341.41;102333;1331;138653;-84
2021/12/29 06:32:16;;;;;;;50.30;22.50;;;;;;;-3.09;86.50;97348.16;102298;1327;24410;-84
2021/12/29 06:34:43;;;;;;;42.70;21.40;;;;;;;-3.08;86.51;97350.51;102558;1331;22821;-83
2021/12/29 06:37:12;;;;;;;42.70;22.40;;;;;;;-3.07;86.26;97357.08;102415;1330;138004;-84
2021/12/29 06:39:43;;;;;;;47.70;23.70;;;;;;;-3.07;86.44;97361.74;102303;1330;24283;-83
2021/12/29 06:42:10;;;;;;;51.20;23.40;;;;;;;-3.06;86.35;97365.16;102369;1330;137794;-83
2021/12/29 06:44:37;;;;;;;46.00;23.90;;;;;;;-3.07;86.63;97363.88;102772;1331;23187;-83
2021/12/29 06:47:05;;;;;;;46.10;20.60;;;;;;;-3.08;85.84;97370.87;102740;1333;22674;-83
2021/12/29 06:49:31;;;;;;;47.60;22.70;;;;;;;-3.08;86.43;97375.30;102749;1331;138196;-83
2021/12/29 06:51:58;;;;;;;49.30;21.90;;;;;;;-3.06;86.43;97376.19;102866;1330;25409;-83
2021/12/29 06:54:24;;;;;;;42.80;19.70;;;;;;;-3.04;86.25;97386.13;102668;1331;137762;-83
2021/12/29 06:56:50;;;;;;;42.40;22.50;;;;;;;-3.03;86.37;97384.74;102833;1330;22800;-83
2021/12/29 06:59:16;;;;;;;48.90;23.80;;;;;;;-3.03;86.35;97385.27;102672;1331;22633;-83
2021/12/29 07:01:43;;;;;;;48.30;24.80;;;;;;;-3.03;85.97;97384.77;102497;1330;138205;-83
2021/12/29 07:04:09;;;;;;;49.80;23.90;;;;;;;-3.00;86.07;97388.84;102948;1331;22650;-83
2021/12/29 07:06:35;;;;;;;50.20;24.30;;;;;;;-2.97;86.33;97386.41;102769;1327;138283;-83
2021/12/29 07:09:03;;;;;;;45.30;22.80;;;;;;;-2.94;86.10;97390.52;102503;1330;24861;-83
2021/12/29 07:11:29;;;;;;;47.80;22.70;;;;;;;-2.91;86.30;97393.54;102627;1331;138099;-84
2021/12/29 07:13:59;;;;;;;43.20;21.80;;;;;;;-2.88;86.04;97390.75;102307;1330;22637;-83
2021/12/29 07:16:25;;;;;;;42.70;21.60;;;;;;;-2.90;85.93;97390.97;102589;1330;25281;-84
2021/12/29 07:18:52;;;;;;;42.40;24.30;;;;;;;-2.90;86.32;97389.86;102409;1324;137854;-84
2021/12/29 07:21:18;;;;;;;44.80;22.90;;;;;;;-2.90;86.19;97389.00;102805;1327;23279;-84
2021/12/29 07:23:44;;;;;;;48.60;23.10;;;;;;;-2.89;85.80;97389.19;103123;1331;138620;-84
2021/12/29 07:26:10;;;;;;;45.20;22.40;;;;;;;-2.83;86.12;97385.73;103076;1333;26153;-84
2021/12/29 07:28:38;;;;;;;47.90;22.80;;;;;;;-2.78;86.17;97390.98;103660;1330;23360;-84
2021/12/29 07:31:05;;;;;;;45.00;21.40;;;;;;;-2.77;85.76;97393.30;103077;1330;138139;-84
2021/12/29 07:33:33;;;;;;;50.90;23.40;;;;;;;-2.76;85.70;97400.94;102677;1327;24401;-83
2021/12/29 07:36:00;;;;;;;51.60;24.50;;;;;;;-2.74;85.85;97400.89;102409;1331;138034;-84
2021/12/29 07:38:26;;;;;;;49.30;24.50;;;;;;;-2.71;85.70;97403.95;102549;1331;22826;-83
2021/12/29 07:40:53;;;;;;;45.00;23.70;;;;;;;-2.71;85.60;97407.10;102388;1332;24301;-84
2021/12/29 07:43:19;;;;;;;43.30;21.70;;;;;;;-2.64;86.24;97413.09;103215;1329;138821;-84
2021/12/29 07:45:46;;;;;;;45.90;23.00;;;;;;;-2.61;85.61;97410.02;102958;1330;24039;-84
2021/12/29 07:48:13;;;;;;;46.40;23.40;;;;;;;-2.60;85.38;97412.20;102606;1327;137830;-84
2021/12/29 07:50:40;;;;;;;46.50;23.30;;;;;;;-2.55;85.57;97408.77;102548;1331;22622;-84
2021/12/29 07:53:06;;;;;;;44.60;22.10;;;;;;;-2.53;85.45;97414.41;102665;1331;24109;-84
2021/12/29 07:55:32;;;;;;;47.30;23.40;;;;;;;-2.55;85.29;97418.49;102503;1330;138167;-84
2021/12/29 07:57:59;;;;;;;50.30;25.50;;;;;;;-2.48;86.13;97416.07;102792;1324;23436;-84
2021/12/29 08:00:26;;;;;;;48.00;24.20;;;;;;;-2.39;85.59;97418.30;102959;1330;138596;-83
2021/12/29 08:02:53;;;;;;;48.70;24.20;;;;;;;-2.32;85.81;97416.90;103151;1328;23280;-84
2021/12/29 08:05:19;;;;;;;45.50;23.70;;;;;;;-2.26;85.30;97418.59;102870;1333;22667;-84
2021/12/29 08:07:46;;;;;;;46.20;24.90;;;;;;;-2.22;85.36;97418.97;103296;1326;138552;-84
2021/12/29 08:10:13;;;;;;;48.10;23.70;;;;;;;-2.16;85.61;97417.15;103199;1326;22593;-84
2021/12/29 08:12:40;;;;;;;51.00;23.70;;;;;;;-2.11;85.00;97421.51;102870;1324;137895;-83
2021/12/29 08:15:08;;;;;;;51.00;24.70;;;;;;;-2.10;85.03;97426.48;102821;1330;139669;-84
2021/12/29 08:17:34;;;;;;;56.20;28.20;;;;;;;-2.08;85.07;97429.33;102807;1330;138038;-84
2021/12/29 08:20:02;;;;;;;49.90;25.90;;;;;;;-2.04;84.99;97426.34;102645;1330;22609;-84
2021/12/29 08:22:29;;;;;;;47.40;25.30;;;;;;;-2.02;84.54;97432.97;102983;1332;22010;-83
2021/12/29 08:24:55;;;;;;;47.90;24.20;;;;;;;-2.01;84.41;97431.04;102644;1330;138236;-83
2021/12/29 08:27:22;;;;;;;49.90;24.80;;;;;;;-2.00;84.61;97426.99;102285;1330;22740;-84
2021/12/29 08:29:48;;;;;;;54.40;28.90;;;;;;;-1.96;84.47;97427.15;102127;1330;138048;-84
2021/12/29 08:32:15;;;;;;;56.20;28.10;;;;;;;-1.96;84.42;97421.43;102509;1331;24248;-84
2021/12/29 08:34:41;;;;;;;60.70;29.00;;;;;;;-1.95;84.38;97426.22;102575;1324;22590;-84
2021/12/29 08:37:08;;;;;;;59.50;29.90;;;;;;;-1.95;84.46;97428.73;102562;1330;137808;-84
2021/12/29 08:39:34;;;;;;;57.90;30.00;;;;;;;-1.92;84.69;97431.77;102506;1329;22686;-84
2021/12/29 08:42:01;;;;;;;54.40;27.60;;;;;;;-1.85;84.91;97430.33;102232;1333;139241;-84
2021/12/29 08:44:27;;;;;;;53.10;27.60;;;;;;;-1.76;84.64;97438.25;102372;1327;25414;-83
2021/12/29 08:46:53;;;;;;;55.00;28.50;;;;;;;-1.68;84.45;97439.64;102278;1333;22752;-83
2021/12/29 08:49:19;;;;;;;53.70;28.50;;;;;;;-1.64;84.41;97440.70;102344;1327;137756;-83
2021/12/29 08:51:45;;;;;;;58.30;30.00;;;;;;;-1.57;84.32;97433.65;102601;1331;25345;-83
2021/12/29 08:54:12;;;;;;;58.20;27.40;;;;;;;-1.50;84.95;97438.48;102529;1332;137778;-83
2021/12/29 08:56:39;;;;;;;59.00;29.30;;;;;;;-1.28;85.20;97439.86;102209;1331;22557;-83
2021/12/29 08:59:05;;;;;;;56.20;29.10;;;;;;;-1.18;83.97;97438.09;102133;1331;24230;-84
2021/12/29 09:01:31;;;;;;;60.10;29.30;;;;;;;-1.05;83.97;97442.59;102353;1333;138227;-84
2021/12/29 09:03:58;;;;;;;56.40;28.40;;;;;;;-0.91;83.92;97446.67;102313;1333;22573;-84
2021/12/29 09:06:24;;;;;;;60.80;30.70;;;;;;;-0.82;83.80;97445.27;102316;1330;138067;-84
2021/12/29 09:08:50;;;;;;;61.90;30.60;;;;;;;-0.73;83.32;97447.63;102568;1333;22622;-84
2021/12/29 09:11:16;;;;;;;58.90;31.60;;;;;;;-0.67;83.09;97440.64;102430;1332;25488;-83
2021/12/29 09:13:43;;;;;;;60.80;31.60;;;;;;;-0.64;82.63;97441.02;102611;1330;137631;-83
2021/12/29 09:16:10;;;;;;;65.70;32.40;;;;;;;-0.62;82.35;97439.88;102597;1330;25245;-84
2021/12/29 09:18:38;;;;;;;59.80;30.70;;;;;;;-0.61;82.63;97441.85;102535;1324;137969;-84
2021/12/29 09:21:10;;;;;;;62.30;31.50;;;;;;;-0.58;82.46;97441.91;102533;1328;22590;-84
2021/12/29 09:23:38;;;;;;;63.00;30.90;;;;;;;-0.54;82.07;97442.83;102356;1332;139559;-84
2021/12/29 09:26:05;;;;;;;60.10;30.80;;;;;;;-0.54;82.02;97444.80;102323;1330;24235;-84
2021/12/29 09:28:32;;;;;;;68.00;32.60;;;;;;;-0.55;81.87;97444.60;102447;1329;22664;-84
2021/12/29 09:30:59;;;;;;;66.40;32.60;;;;;;;-0.55;82.34;97444.92;102373;1331;138229;-84
2021/12/29 09:33:25;;;;;;;59.90;29.90;;;;;;;-0.55;82.03;97444.05;102010;1325;25243;-84
2021/12/29 09:35:57;;;;;;;62.00;30.80;;;;;;;-0.54;82.48;97445.17;102095;1333;138507;-84
2021/12/29 09:38:24;;;;;;;62.60;32.00;;;;;;;-0.51;82.17;97446.17;102537;1332;22733;-84
2021/12/29 09:40:51;;;;;;;68.70;34.50;;;;;;;-0.51;81.74;97447.41;102700;1324;22688;-84
2021/12/29 09:43:19;;;;;;;68.50;33.80;;;;;;;-0.50;82.00;97448.11;102462;1330;138789;-84
2021/12/29 09:45:47;;;;;;;64.30;31.60;;;;;;;-0.44;82.51;97446.45;102408;1333;22928;-84
2021/12/29 09:48:15;;;;;;;63.10;31.80;;;;;;;-0.35;82.50;97449.27;101803;1327;138176;-85
2021/12/29 09:50:42;;;;;;;66.40;33.80;;;;;;;-0.34;81.86;97448.55;102335;1327;22774;-83
2021/12/29 09:53:09;;;;;;;68.10;32.40;;;;;;;-0.35;81.74;97447.80;102716;1324;25346;-84
2021/12/29 09:55:37;;;;;;;65.60;34.20;;;;;;;-0.32;81.95;97441.56;102539;1325;137971;-83
2021/12/29 09:58:05;;;;;;;63.10;31.60;;;;;;;-0.31;81.85;97443.10;102290;1330;26503;-84
2021/12/29 10:00:45;;;;;;;67.40;33.80;;;;;;;-0.32;81.86;97443.58;102544;1328;137775;-81
2021/12/29 10:03:28;;;;;;;67.60;33.80;;;;;;;-0.31;81.82;97447.40;102943;1327;30812;-84
2021/12/29 10:05:58;;;;;;;56.60;30.10;;;;;;;-0.26;81.89;97450.55;102648;1330;139334;-82
2021/12/29 10:08:31;;;;;;;62.30;32.20;;;;;;;-0.24;81.68;97450.89;102644;1326;24234;-82
2021/12/29 10:11:05;;;;;;;63.30;33.10;;;;;;;-0.20;81.89;97456.94;102390;1330;22615;-81
2021/12/29 10:13:33;;;;;;;67.10;33.40;;;;;;;-0.17;81.79;97460.66;102113;1332;137968;-85
2021/12/29 10:16:04;;;;;;;66.60;32.90;;;;;;;-0.13;82.09;97458.41;102094;1328;25469;-85
2021/12/29 10:18:32;;;;;;;69.20;34.30;;;;;;;-0.12;81.93;97457.80;102350;1330;137841;-85
2021/12/29 10:21:03;;;;;;;68.90;35.00;;;;;;;-0.10;82.05;97460.73;102722;1324;24231;-85
2021/12/29 10:23:33;;;;;;;65.10;34.70;;;;;;;-0.10;81.48;97461.67;102073;1329;138088;-85
2021/12/29 10:26:16;;;;;;;76.30;35.60;;;;;;;-0.10;81.58;97459.23;102502;1327;24225;-85
2021/12/29 10:28:49;;;;;;;74.60;35.10;;;;;;;-0.09;81.66;97457.11;102654;1331;25264;-85
2021/12/29 10:31:27;;;;;;;63.10;32.00;;;;;;;-0.06;81.80;97454.84;102386;1327;138414;-85
2021/12/29 10:34:03;;;;;;;63.60;32.80;;;;;;;-0.02;81.85;97455.02;103014;1328;24323;-85
2021/12/29 10:36:34;;;;;;;71.30;32.60;;;;;;;0.06;82.12;97449.11;102549;1328;138350;-85
2021/12/29 10:39:08;;;;;;;85.80;39.60;;;;;;;0.13;82.15;97450.40;102600;1332;24770;-84
2021/12/29 10:42:11;;;;;;;91.50;41.30;;;;;;;0.19;81.46;97453.05;102763;1324;137901;-84
2021/12/29 10:44:46;;;;;;;96.40;43.70;;;;;;;0.22;81.69;97453.76;102117;1330;30216;-84
2021/12/29 10:47:20;;;;;;;94.50;43.80;;;;;;;0.25;81.56;97454.74;102070;1331;25671;-85
2021/12/29 10:50:03;;;;;;;87.90;42.30;;;;;;;0.27;81.27;97452.73;102345;1331;138138;-85
2021/12/29 10:52:33;;;;;;;84.20;39.70;;;;;;;0.27;80.73;97453.19;102553;1332;22770;-85
2021/12/29 10:55:03;;;;;;;85.90;41.20;;;;;;;0.26;80.88;97454.17;102480;1332;137704;-85
2021/12/29 10:57:29;;;;;;;;;;;;;;;0.27;81.03;97455.90;103165;1329;22575;-85
2021/12/29 10:59:58;;;;;;;74.00;35.80;;;;;;;0.31;81.31;97459.45;102431;1324;124124;-84
2021/12/29 11:02:30;;;;;;;74.20;36.20;;;;;;;0.36;81.68;97449.86;103002;1329;22693;-84
2021/12/29 11:05:10;;;;;;;76.80;40.00;;;;;;;0.41;81.45;97452.48;102665;1330;22624;-84
2021/12/29 11:07:39;;;;;;;74.60;36.30;;;;;;;0.43;81.27;97452.55;102602;1325;138521;-83
2021/12/29 11:10:18;;;;;;;76.10;36.10;;;;;;;0.44;80.83;97455.45;102598;1330;22582;-84
2021/12/29 11:12:52;;;;;;;81.40;38.10;;;;;;;0.40;80.37;97450.23;102409;1327;138075;-83
2021/12/29 11:15:23;;;;;;;70.10;36.50;;;;;;;0.37;80.13;97452.83;102214;1330;30471;-84
2021/12/29 11:17:51;;;;;;;85.40;38.90;;;;;;;0.34;80.41;97453.20;101812;1332;137765;-84
2021/12/29 11:20:20;;;;;;;96.20;46.00;;;;;;;0.33;80.50;97448.91;101944;1331;22608;-84
2021/12/29 11:22:46;;;;;;;75.90;39.60;;;;;;;0.33;80.59;97449.02;102499;1327;22615;-84